Time;durP1;ratioP1;P1;durP2;ratioP2;P2;SDS_P1;SDS_P2;PMS_P1;PMS_P2;Temp;Humidity;BMP_temperature;BMP_pressure;BME280_temperature;BME280_humidity;BME280_pressure;Samples;Min_cycle;Max_cycle;Signal;HPM_P1;HPM_P2
2023/04/09 00:01:07;;;;;;;18.40;11.90;;;;;;;;;;4998347;28;20030;-77
2023/04/09 00:03:34;;;;;;;16.40;10.80;;;;;;;;;;5013054;28;20049;-77
2023/04/09 00:05:59;;;;;;;16.38;11.27;;;;;;;;;;5012362;28;20069;-77
2023/04/09 00:08:25;;;;;;;16.67;11.57;;;;;;;;;;5021350;28;20109;-76
2023/04/09 00:10:52;;;;;;;16.38;10.57;;;;;;;;;;5009847;28;20038;-76
2023/04/09 00:13:17;;;;;;;17.48;11.57;;;;;;;;;;5006431;28;20390;-77
2023/04/09 00:15:44;;;;;;;16.08;10.50;;;;;;;;;;4996357;28;20036;-78
2023/04/09 00:18:09;;;;;;;16.83;11.02;;;;;;;;;;5012369;28;20057;-77
2023/04/09 00:20:34;;;;;;;17.60;10.63;;;;;;;;;;5000481;28;20025;-78
2023/04/09 00:23:00;;;;;;;16.42;10.70;;;;;;;;;;4991653;28;20473;-77
2023/04/09 00:25:25;;;;;;;16.10;10.32;;;;;;;;;;5001341;28;20390;-77
2023/04/09 00:27:51;;;;;;;17.40;11.40;;;;;;;;;;5017010;28;20026;-77
2023/04/09 00:30:16;;;;;;;17.08;11.13;;;;;;;;;;4998940;28;20414;-77
2023/04/09 00:32:41;;;;;;;15.23;10.18;;;;;;;;;;5015287;28;20052;-77
2023/04/09 00:35:08;;;;;;;18.98;12.02;;;;;;;;;;4980250;28;20032;-77
2023/04/09 00:37:33;;;;;;;17.05;11.00;;;;;;;;;;4996685;28;20032;-76
2023/04/09 00:39:59;;;;;;;17.13;11.32;;;;;;;;;;5016522;28;20026;-76
2023/04/09 00:42:25;;;;;;;17.75;10.75;;;;;;;;;;5015750;28;20375;-78
2023/04/09 00:44:50;;;;;;;17.52;11.02;;;;;;;;;;5012581;28;20397;-77
2023/04/09 00:47:16;;;;;;;19.38;12.13;;;;;;;;;;4999645;28;20029;-76
2023/04/09 00:49:42;;;;;;;17.95;11.15;;;;;;;;;;5014777;28;20552;-77
2023/04/09 00:52:07;;;;;;;18.58;11.50;;;;;;;;;;5015546;28;20081;-77
2023/04/09 00:54:32;;;;;;;17.73;11.27;;;;;;;;;;4996510;28;20026;-77
2023/04/09 00:56:58;;;;;;;16.85;11.02;;;;;;;;;;4997102;28;20024;-76
2023/04/09 00:59:25;;;;;;;18.50;11.38;;;;;;;;;;5016198;28;20024;-76
2023/04/09 01:01:50;;;;;;;18.88;11.48;;;;;;;;;;4995521;28;20026;-76
2023/04/09 01:04:16;;;;;;;17.80;10.63;;;;;;;;;;5013108;28;20037;-77
2023/04/09 01:06:48;;;;;;;20.73;11.45;;;;;;;;;;5004821;28;20037;-77
2023/04/09 01:09:37;;;;;;;16.25;10.20;;;;;;;;;;5012763;28;20029;-76
2023/04/09 01:12:35;;;;;;;17.33;10.95;;;;;;;;;;5014015;28;20030;-78
2023/04/09 01:15:05;;;;;;;17.20;10.70;;;;;;;;;;4972893;28;20042;-77
2023/04/09 01:17:45;;;;;;;18.05;11.02;;;;;;;;;;5000926;28;20080;-77
2023/04/09 01:20:29;;;;;;;17.52;11.45;;;;;;;;;;5009957;28;20030;-77
2023/04/09 01:23:09;;;;;;;16.63;10.73;;;;;;;;;;5009039;28;20038;-77
2023/04/09 01:26:01;;;;;;;19.27;11.40;;;;;;;;;;5016278;28;20079;-76
2023/04/09 01:28:32;;;;;;;20.08;11.52;;;;;;;;;;5014673;28;20386;-77
2023/04/09 01:31:19;;;;;;;18.88;11.23;;;;;;;;;;5017981;28;20476;-76
2023/04/09 01:33:45;;;;;;;17.42;10.50;;;;;;;;;;5010800;28;20033;-77
2023/04/09 01:36:11;;;;;;;17.33;11.02;;;;;;;;;;5016451;28;20029;-77
2023/04/09 01:38:41;;;;;;;18.02;11.25;;;;;;;;;;5000445;28;20041;-78
2023/04/09 01:41:09;;;;;;;15.95;10.57;;;;;;;;;;4997430;28;20533;-77
2023/04/09 01:43:36;;;;;;;19.25;11.13;;;;;;;;;;5014263;28;20029;-77
2023/04/09 01:46:02;;;;;;;18.23;10.68;;;;;;;;;;4996754;28;20072;-76
2023/04/09 01:48:29;;;;;;;19.65;11.98;;;;;;;;;;5016467;28;20081;-78
2023/04/09 01:50:56;;;;;;;19.63;11.10;;;;;;;;;;5019883;28;20544;-76
2023/04/09 01:53:22;;;;;;;19.40;11.27;;;;;;;;;;5005145;28;20041;-76
2023/04/09 01:55:47;;;;;;;16.20;10.43;;;;;;;;;;4997554;28;20025;-77
2023/04/09 01:58:13;;;;;;;19.20;11.52;;;;;;;;;;4998255;28;20042;-76
2023/04/09 02:00:41;;;;;;;18.13;11.32;;;;;;;;;;4995574;28;20109;-76
2023/04/09 02:03:17;;;;;;;18.80;11.48;;;;;;;;;;5001761;28;20124;-76
2023/04/09 02:05:51;;;;;;;17.63;11.25;;;;;;;;;;5009010;28;20030;-77
2023/04/09 02:08:20;;;;;;;17.42;10.63;;;;;;;;;;5012334;28;20030;-77
2023/04/09 02:10:55;;;;;;;19.52;11.30;;;;;;;;;;5015781;28;20091;-77
2023/04/09 02:13:22;;;;;;;17.63;10.85;;;;;;;;;;4992633;28;20125;-76
2023/04/09 02:15:49;;;;;;;18.88;11.25;;;;;;;;;;5013883;28;20073;-76
2023/04/09 02:18:27;;;;;;;20.25;11.00;;;;;;;;;;4998107;28;20030;-76
2023/04/09 02:20:53;;;;;;;20.20;11.23;;;;;;;;;;4992751;28;20033;-77
2023/04/09 02:23:19;;;;;;;19.65;11.98;;;;;;;;;;4992092;28;20030;-77
2023/04/09 02:25:44;;;;;;;17.42;10.85;;;;;;;;;;5008368;28;20044;-77
2023/04/09 02:28:10;;;;;;;21.20;12.45;;;;;;;;;;5009585;28;20022;-77
2023/04/09 02:30:35;;;;;;;19.38;11.73;;;;;;;;;;5013746;28;20030;-77
2023/04/09 02:33:00;;;;;;;19.00;12.23;;;;;;;;;;4995903;28;20038;-77
2023/04/09 02:35:26;;;;;;;19.70;11.40;;;;;;;;;;4991602;28;20033;-77
2023/04/09 02:37:51;;;;;;;17.98;11.55;;;;;;;;;;5011935;28;20033;-77
2023/04/09 02:40:16;;;;;;;20.85;12.38;;;;;;;;;;4995748;28;20026;-77
2023/04/09 02:42:42;;;;;;;21.05;12.43;;;;;;;;;;5014137;28;20053;-77
2023/04/09 02:45:08;;;;;;;21.60;11.73;;;;;;;;;;4998277;28;20034;-77
2023/04/09 02:47:33;;;;;;;16.00;10.88;;;;;;;;;;4986438;28;20031;-76
2023/04/09 02:49:58;;;;;;;18.50;10.93;;;;;;;;;;4994925;28;20442;-79
2023/04/09 02:52:24;;;;;;;19.17;11.43;;;;;;;;;;5009747;28;20034;-78
2023/04/09 02:54:51;;;;;;;21.58;12.70;;;;;;;;;;5015855;28;22174;-77
2023/04/09 02:57:17;;;;;;;19.25;12.52;;;;;;;;;;5003577;28;20029;-77
2023/04/09 02:59:43;;;;;;;19.25;11.85;;;;;;;;;;5012438;28;20044;-78
2023/04/09 03:02:08;;;;;;;20.98;12.35;;;;;;;;;;5010305;28;20033;-77
2023/04/09 03:04:34;;;;;;;19.48;12.18;;;;;;;;;;4995131;28;20036;-77
2023/04/09 03:06:59;;;;;;;21.45;12.10;;;;;;;;;;5011863;28;20117;-76
2023/04/09 03:09:24;;;;;;;21.63;11.75;;;;;;;;;;5013497;28;20025;-77
2023/04/09 03:11:50;;;;;;;20.15;11.60;;;;;;;;;;5006669;28;20061;-76
2023/04/09 03:14:15;;;;;;;21.50;11.82;;;;;;;;;;5010730;28;20478;-76
2023/04/09 03:16:40;;;;;;;22.75;11.50;;;;;;;;;;5011009;28;20037;-77
2023/04/09 03:19:06;;;;;;;19.25;11.65;;;;;;;;;;5007326;28;20032;-76
2023/04/09 03:21:32;;;;;;;21.80;12.18;;;;;;;;;;4992700;28;20393;-77
2023/04/09 03:23:57;;;;;;;21.23;12.68;;;;;;;;;;5011343;28;20441;-78
2023/04/09 03:26:22;;;;;;;20.55;11.65;;;;;;;;;;5014536;28;20043;-77
2023/04/09 03:28:48;;;;;;;21.30;12.38;;;;;;;;;;5006506;28;20026;-77
2023/04/09 03:31:13;;;;;;;21.45;11.88;;;;;;;;;;4997884;28;20025;-77
2023/04/09 03:33:39;;;;;;;23.45;13.68;;;;;;;;;;4994527;28;20393;-78
2023/04/09 03:36:04;;;;;;;19.77;11.65;;;;;;;;;;5008751;28;20030;-77
2023/04/09 03:38:30;;;;;;;21.58;13.00;;;;;;;;;;5009206;28;20090;-77
2023/04/09 03:40:55;;;;;;;22.95;11.85;;;;;;;;;;5014167;28;20032;-77
2023/04/09 03:43:20;;;;;;;23.40;13.00;;;;;;;;;;4993246;28;20026;-77
2023/04/09 03:45:46;;;;;;;23.05;12.90;;;;;;;;;;4993049;28;20040;-77
2023/04/09 03:48:11;;;;;;;21.10;12.30;;;;;;;;;;5013459;28;20482;-76
2023/04/09 03:50:40;;;;;;;21.02;12.13;;;;;;;;;;5009716;28;20029;-77
2023/04/09 03:53:06;;;;;;;22.15;12.82;;;;;;;;;;4996517;28;20057;-77
2023/04/09 03:55:31;;;;;;;26.75;14.27;;;;;;;;;;5011032;28;20033;-76
2023/04/09 03:57:57;;;;;;;25.13;14.48;;;;;;;;;;4991273;28;20030;-77
2023/04/09 04:00:22;;;;;;;22.35;12.73;;;;;;;;;;5012237;28;20060;-76
2023/04/09 04:02:47;;;;;;;22.80;13.25;;;;;;;;;;4993716;28;20030;-77
2023/04/09 04:05:13;;;;;;;23.27;13.88;;;;;;;;;;4996055;28;20026;-77
2023/04/09 04:07:38;;;;;;;27.63;13.88;;;;;;;;;;5014195;28;20037;-77
2023/04/09 04:10:05;;;;;;;27.65;14.43;;;;;;;;;;5009472;28;20382;-76
2023/04/09 04:12:31;;;;;;;28.25;14.93;;;;;;;;;;4997691;28;20034;-77
2023/04/09 04:14:57;;;;;;;26.63;14.02;;;;;;;;;;5011896;28;20026;-76
2023/04/09 04:17:22;;;;;;;26.77;14.75;;;;;;;;;;4999766;28;20034;-77
2023/04/09 04:19:47;;;;;;;24.55;13.95;;;;;;;;;;5014275;28;20036;-77
2023/04/09 04:22:13;;;;;;;25.20;14.65;;;;;;;;;;5013216;28;20096;-77
2023/04/09 04:24:38;;;;;;;28.83;15.80;;;;;;;;;;4997960;28;20025;-77
2023/04/09 04:27:04;;;;;;;27.85;15.20;;;;;;;;;;5007760;28;20030;-76
2023/04/09 04:29:29;;;;;;;26.92;13.48;;;;;;;;;;4994134;28;20441;-77
2023/04/09 04:31:54;;;;;;;27.50;15.02;;;;;;;;;;5009923;28;20120;-77
2023/04/09 04:34:20;;;;;;;25.67;14.07;;;;;;;;;;5014292;28;20470;-76
2023/04/09 04:36:45;;;;;;;26.35;14.60;;;;;;;;;;4996555;28;20072;-76
2023/04/09 04:39:10;;;;;;;28.15;15.00;;;;;;;;;;4995270;28;20029;-77
2023/04/09 04:41:36;;;;;;;25.33;14.90;;;;;;;;;;5011808;28;20030;-77
2023/04/09 04:44:01;;;;;;;25.38;15.23;;;;;;;;;;5014451;28;20057;-77
2023/04/09 04:46:26;;;;;;;25.52;13.95;;;;;;;;;;5017511;28;20493;-77
2023/04/09 04:48:52;;;;;;;24.67;14.30;;;;;;;;;;5015803;28;20389;-77
2023/04/09 04:51:17;;;;;;;24.48;13.77;;;;;;;;;;5012006;28;20462;-77
2023/04/09 04:53:42;;;;;;;27.40;13.63;;;;;;;;;;5012420;28;20041;-77
2023/04/09 04:56:14;;;;;;;25.45;14.20;;;;;;;;;;5001636;28;20030;-77
2023/04/09 04:58:41;;;;;;;24.07;13.77;;;;;;;;;;4998886;28;20018;-77
2023/04/09 05:01:06;;;;;;;23.98;13.18;;;;;;;;;;4995187;28;20033;-76
2023/04/09 05:03:31;;;;;;;25.92;14.32;;;;;;;;;;5014930;28;20069;-77
2023/04/09 05:05:57;;;;;;;23.73;13.60;;;;;;;;;;5018370;28;20029;-77
2023/04/09 05:08:22;;;;;;;21.30;13.13;;;;;;;;;;5012193;28;20136;-76
2023/04/09 05:10:47;;;;;;;24.63;13.60;;;;;;;;;;5014149;28;20053;-77
2023/04/09 05:13:13;;;;;;;25.35;14.20;;;;;;;;;;4995948;28;20041;-77
2023/04/09 05:15:40;;;;;;;23.13;13.10;;;;;;;;;;4998307;28;20395;-77
2023/04/09 05:18:06;;;;;;;23.10;13.57;;;;;;;;;;5014709;28;20033;-77
2023/04/09 05:20:32;;;;;;;21.55;12.85;;;;;;;;;;5000105;28;20474;-76
2023/04/09 05:22:57;;;;;;;24.42;12.95;;;;;;;;;;5016085;28;20378;-77
2023/04/09 05:25:23;;;;;;;21.88;12.75;;;;;;;;;;4994783;28;20022;-77
2023/04/09 05:27:48;;;;;;;24.02;13.55;;;;;;;;;;4996963;28;20030;-77
2023/04/09 05:30:14;;;;;;;22.38;13.20;;;;;;;;;;5011292;28;20088;-76
2023/04/09 05:32:40;;;;;;;24.10;14.30;;;;;;;;;;5018116;28;20029;-76
2023/04/09 05:35:05;;;;;;;23.23;13.15;;;;;;;;;;5003456;28;20018;-77
2023/04/09 05:37:31;;;;;;;24.90;13.00;;;;;;;;;;5011721;28;20026;-76
2023/04/09 05:39:56;;;;;;;23.80;13.20;;;;;;;;;;5014275;28;20096;-77
2023/04/09 05:42:21;;;;;;;21.98;12.38;;;;;;;;;;5014000;28;20145;-76
2023/04/09 05:44:47;;;;;;;24.30;12.18;;;;;;;;;;4996182;28;20073;-77
2023/04/09 05:47:12;;;;;;;22.83;12.55;;;;;;;;;;5015187;28;20049;-77
2023/04/09 05:49:37;;;;;;;23.58;13.05;;;;;;;;;;4994973;28;20026;-78
2023/04/09 05:52:03;;;;;;;22.20;13.05;;;;;;;;;;5010613;28;20026;-77
2023/04/09 05:54:28;;;;;;;23.15;12.50;;;;;;;;;;4993912;28;20026;-77
2023/04/09 05:56:54;;;;;;;23.90;12.13;;;;;;;;;;5003752;28;20052;-77
2023/04/09 05:59:19;;;;;;;19.88;11.80;;;;;;;;;;4994999;28;20593;-77
2023/04/09 06:01:45;;;;;;;20.58;11.57;;;;;;;;;;4998389;28;20056;-77
2023/04/09 06:04:10;;;;;;;21.08;11.85;;;;;;;;;;5000075;28;20029;-77
2023/04/09 06:06:37;;;;;;;21.98;12.70;;;;;;;;;;5001299;28;20137;-76
2023/04/09 06:09:03;;;;;;;20.42;11.73;;;;;;;;;;5013165;28;20033;-77
2023/04/09 06:11:30;;;;;;;20.20;11.70;;;;;;;;;;5002190;28;20025;-77
2023/04/09 06:13:55;;;;;;;20.83;11.82;;;;;;;;;;5020153;28;20036;-76
2023/04/09 06:16:21;;;;;;;19.30;11.70;;;;;;;;;;5012654;28;20026;-77
2023/04/09 06:18:49;;;;;;;21.60;11.98;;;;;;;;;;5012173;28;20028;-77
2023/04/09 06:21:14;;;;;;;20.73;11.70;;;;;;;;;;4997328;28;20409;-76
2023/04/09 06:23:40;;;;;;;21.55;12.60;;;;;;;;;;4998291;28;20034;-76
2023/04/09 06:26:05;;;;;;;21.05;11.57;;;;;;;;;;4996449;28;20025;-76
2023/04/09 06:28:32;;;;;;;19.90;11.57;;;;;;;;;;4998638;28;20108;-76
2023/04/09 06:30:57;;;;;;;21.73;12.02;;;;;;;;;;4997906;28;20030;-76
2023/04/09 06:33:23;;;;;;;21.13;11.98;;;;;;;;;;5009009;28;20105;-77
2023/04/09 06:35:49;;;;;;;23.25;12.70;;;;;;;;;;5014237;28;20049;-77
2023/04/09 06:38:15;;;;;;;22.55;12.05;;;;;;;;;;4990878;28;20038;-77
2023/04/09 06:40:40;;;;;;;20.67;11.75;;;;;;;;;;4997578;28;20029;-77
2023/04/09 06:43:06;;;;;;;19.33;11.63;;;;;;;;;;4996108;28;20469;-77
2023/04/09 06:45:32;;;;;;;23.67;13.10;;;;;;;;;;4991345;28;20089;-77
2023/04/09 06:47:58;;;;;;;20.98;11.85;;;;;;;;;;4994241;28;20060;-77
2023/04/09 06:50:24;;;;;;;25.40;12.98;;;;;;;;;;4995358;28;20112;-77
2023/04/09 06:52:50;;;;;;;21.60;12.10;;;;;;;;;;4994146;28;20098;-77
2023/04/09 06:55:16;;;;;;;24.73;12.32;;;;;;;;;;4990940;28;20490;-77
2023/04/09 06:57:41;;;;;;;22.08;12.10;;;;;;;;;;4995020;28;20022;-77
2023/04/09 07:00:08;;;;;;;20.73;11.80;;;;;;;;;;4987842;28;20037;-77
2023/04/09 07:02:34;;;;;;;22.67;13.77;;;;;;;;;;4993069;28;20037;-76
2023/04/09 07:04:59;;;;;;;21.65;13.13;;;;;;;;;;4996853;28;20386;-77
2023/04/09 07:07:25;;;;;;;21.25;12.90;;;;;;;;;;4997406;28;20026;-76
2023/04/09 07:09:52;;;;;;;26.23;13.77;;;;;;;;;;5014295;28;20022;-76
2023/04/09 07:12:31;;;;;;;21.73;13.02;;;;;;;;;;5011311;28;20030;-78
2023/04/09 07:14:57;;;;;;;22.52;13.20;;;;;;;;;;4997728;28;20148;-77
2023/04/09 07:17:23;;;;;;;22.27;13.57;;;;;;;;;;5011383;28;20101;-77
2023/04/09 07:19:50;;;;;;;22.60;13.90;;;;;;;;;;5007526;28;20133;-80
2023/04/09 07:22:16;;;;;;;24.27;14.52;;;;;;;;;;5009035;28;20492;-81
2023/04/09 07:24:41;;;;;;;25.58;14.32;;;;;;;;;;5004147;28;20030;-80
2023/04/09 07:27:06;;;;;;;26.02;15.25;;;;;;;;;;5006197;28;20088;-81
2023/04/09 07:29:32;;;;;;;27.52;15.75;;;;;;;;;;5005213;28;20026;-80
2023/04/09 07:31:59;;;;;;;25.52;14.93;;;;;;;;;;4989486;28;20116;-81
2023/04/09 07:34:25;;;;;;;23.80;14.07;;;;;;;;;;5005762;28;20116;-81
2023/04/09 07:36:51;;;;;;;26.92;15.25;;;;;;;;;;4979283;28;20120;-81
2023/04/09 07:39:16;;;;;;;25.42;15.57;;;;;;;;;;4984294;28;20068;-80
2023/04/09 07:41:41;;;;;;;26.52;15.50;;;;;;;;;;4981257;28;20065;-81
2023/04/09 07:44:07;;;;;;;25.50;15.57;;;;;;;;;;4988205;28;20025;-81
2023/04/09 07:46:32;;;;;;;21.42;13.88;;;;;;;;;;4985081;28;20034;-81
2023/04/09 07:48:58;;;;;;;27.25;15.60;;;;;;;;;;5006842;28;20022;-81
2023/04/09 07:51:23;;;;;;;23.15;14.82;;;;;;;;;;4982887;28;20032;-81
2023/04/09 07:53:49;;;;;;;27.38;16.42;;;;;;;;;;5006015;28;20497;-81
2023/04/09 07:56:14;;;;;;;27.23;17.05;;;;;;;;;;5005496;28;20026;-79
2023/04/09 07:58:40;;;;;;;25.33;15.88;;;;;;;;;;5005800;28;20410;-80
2023/04/09 08:01:05;;;;;;;29.13;15.52;;;;;;;;;;5007506;28;20018;-81
2023/04/09 08:03:31;;;;;;;26.38;16.35;;;;;;;;;;5007242;28;20509;-80
2023/04/09 08:05:56;;;;;;;26.00;16.17;;;;;;;;;;5010252;28;20033;-81
2023/04/09 08:08:21;;;;;;;27.50;15.70;;;;;;;;;;5004889;28;20025;-81
2023/04/09 08:10:47;;;;;;;27.70;17.10;;;;;;;;;;5008182;28;20030;-81
2023/04/09 08:13:12;;;;;;;28.00;16.73;;;;;;;;;;5004149;28;20064;-81
2023/04/09 08:15:37;;;;;;;27.35;16.90;;;;;;;;;;4990603;28;20025;-81
2023/04/09 08:18:03;;;;;;;27.77;16.58;;;;;;;;;;4989574;28;20044;-77
2023/04/09 08:20:29;;;;;;;30.98;16.77;;;;;;;;;;4991017;28;20025;-80
2023/04/09 08:22:54;;;;;;;29.83;17.55;;;;;;;;;;4998385;28;20077;-81
2023/04/09 08:25:21;;;;;;;27.45;16.52;;;;;;;;;;4988072;28;20083;-81
2023/04/09 08:27:46;;;;;;;25.10;15.98;;;;;;;;;;4991376;28;20072;-81
2023/04/09 08:30:12;;;;;;;27.23;17.85;;;;;;;;;;4992460;28;20060;-81
2023/04/09 08:32:37;;;;;;;30.65;17.67;;;;;;;;;;4993727;28;20034;-81
2023/04/09 08:35:03;;;;;;;29.48;18.88;;;;;;;;;;4994247;28;20061;-81
2023/04/09 08:37:28;;;;;;;28.88;17.95;;;;;;;;;;5012459;28;20033;-81
2023/04/09 08:39:54;;;;;;;29.17;17.27;;;;;;;;;;5014329;28;20026;-81
2023/04/09 08:42:22;;;;;;;30.30;17.85;;;;;;;;;;5003668;28;20133;-79
2023/04/09 08:44:49;;;;;;;27.88;18.27;;;;;;;;;;5008139;28;20367;-81
2023/04/09 08:47:14;;;;;;;30.50;17.23;;;;;;;;;;5008753;28;20030;-79
2023/04/09 08:49:40;;;;;;;31.10;18.88;;;;;;;;;;4988035;28;20053;-81
2023/04/09 08:52:06;;;;;;;29.27;17.83;;;;;;;;;;5014270;28;20022;-81
2023/04/09 08:54:31;;;;;;;30.85;18.73;;;;;;;;;;4995539;28;20116;-82
2023/04/09 08:56:57;;;;;;;31.58;19.52;;;;;;;;;;5015074;28;20033;-81
2023/04/09 08:59:23;;;;;;;33.75;21.48;;;;;;;;;;5010272;28;20034;-81
2023/04/09 09:02:05;;;;;;;32.92;20.65;;;;;;;;;;5003431;28;20048;-81
2023/04/09 09:04:47;;;;;;;30.83;19.10;;;;;;;;;;4991195;28;20041;-82
2023/04/09 09:07:13;;;;;;;32.90;21.83;;;;;;;;;;4986997;28;20042;-82
2023/04/09 09:09:52;;;;;;;34.00;22.13;;;;;;;;;;5003035;28;20035;-79
2023/04/09 09:12:39;;;;;;;34.13;21.25;;;;;;;;;;5010453;28;20064;-80
2023/04/09 09:15:25;;;;;;;30.77;19.92;;;;;;;;;;5003267;28;20022;-81
2023/04/09 09:17:56;;;;;;;31.33;20.33;;;;;;;;;;4985513;28;20168;-81
2023/04/09 09:20:22;;;;;;;33.20;20.45;;;;;;;;;;5003396;28;20026;-81
2023/04/09 09:22:53;;;;;;;32.17;20.73;;;;;;;;;;4986115;28;20057;-81
2023/04/09 09:25:22;;;;;;;32.42;20.30;;;;;;;;;;4977182;28;20121;-79
2023/04/09 09:27:48;;;;;;;35.28;21.67;;;;;;;;;;4991958;28;20030;-81
2023/04/09 09:30:24;;;;;;;34.00;21.90;;;;;;;;;;5006642;28;20076;-82
2023/04/09 09:33:03;;;;;;;32.58;20.23;;;;;;;;;;4987956;28;20029;-81
2023/04/09 09:35:28;;;;;;;28.80;19.35;;;;;;;;;;4989756;28;20029;-82
2023/04/09 09:38:03;;;;;;;31.88;20.58;;;;;;;;;;4987324;28;20037;-80
2023/04/09 09:40:28;;;;;;;31.50;19.27;;;;;;;;;;4991745;28;20026;-79
2023/04/09 09:42:57;;;;;;;31.90;20.42;;;;;;;;;;5007841;28;20045;-81
2023/04/09 09:45:23;;;;;;;31.40;20.23;;;;;;;;;;4985075;28;20034;-79
2023/04/09 09:47:51;;;;;;;31.40;20.13;;;;;;;;;;4984396;28;20063;-77
2023/04/09 09:50:16;;;;;;;31.52;20.17;;;;;;;;;;5010094;28;20030;-77
2023/04/09 09:52:44;;;;;;;31.67;20.23;;;;;;;;;;4997031;28;20042;-78
2023/04/09 09:55:14;;;;;;;32.13;19.58;;;;;;;;;;5016253;28;20029;-77
2023/04/09 09:57:43;;;;;;;31.40;19.38;;;;;;;;;;5017909;28;20497;-78
2023/04/09 10:00:11;;;;;;;26.27;17.65;;;;;;;;;;5010675;28;20041;-77
2023/04/09 10:02:42;;;;;;;24.60;16.45;;;;;;;;;;5009293;28;20126;-78
2023/04/09 10:05:08;;;;;;;23.85;15.45;;;;;;;;;;5010862;28;20029;-79
2023/04/09 10:07:33;;;;;;;25.15;16.10;;;;;;;;;;5019361;28;20029;-77
2023/04/09 10:10:01;;;;;;;26.60;16.98;;;;;;;;;;5010290;28;20034;-78
2023/04/09 10:12:27;;;;;;;24.48;16.08;;;;;;;;;;5023835;28;20034;-78
2023/04/09 10:14:54;;;;;;;27.70;16.75;;;;;;;;;;4993224;28;20049;-77
2023/04/09 10:17:20;;;;;;;25.98;17.13;;;;;;;;;;5022396;28;20025;-78
2023/04/09 10:20:00;;;;;;;24.60;16.20;;;;;;;;;;4996739;28;20375;-78
2023/04/09 10:22:28;;;;;;;24.08;16.05;;;;;;;;;;5012948;28;20386;-78
2023/04/09 10:24:54;;;;;;;23.92;15.20;;;;;;;;;;5009652;28;20097;-77
2023/04/09 10:27:20;;;;;;;21.70;14.60;;;;;;;;;;5009841;28;20030;-77
2023/04/09 10:29:47;;;;;;;20.60;14.13;;;;;;;;;;5000452;28;20033;-77
2023/04/09 10:32:19;;;;;;;24.10;15.45;;;;;;;;;;5016830;28;20083;-78
2023/04/09 10:34:45;;;;;;;24.55;15.75;;;;;;;;;;4996246;28;20036;-78
2023/04/09 10:37:19;;;;;;;25.73;15.77;;;;;;;;;;5014112;28;20223;-78
2023/04/09 10:39:50;;;;;;;21.55;15.10;;;;;;;;;;4993772;28;20037;-77
2023/04/09 10:42:23;;;;;;;21.85;13.98;;;;;;;;;;5012583;28;20444;-78
2023/04/09 10:45:13;;;;;;;22.08;13.90;;;;;;;;;;5016613;28;20022;-78
2023/04/09 10:47:41;;;;;;;20.27;12.88;;;;;;;;;;4995481;28;20057;-78
2023/04/09 10:50:25;;;;;;;16.77;11.00;;;;;;;;;;4997299;28;20022;-77
2023/04/09 10:52:53;;;;;;;17.00;11.98;;;;;;;;;;4997879;28;20083;-77
2023/04/09 10:55:39;;;;;;;16.20;10.88;;;;;;;;;;4991925;28;20084;-77
2023/04/09 10:58:09;;;;;;;17.90;12.23;;;;;;;;;;4996554;28;20497;-77
2023/04/09 11:00:39;;;;;;;17.83;12.45;;;;;;;;;;5014665;28;20026;-77
2023/04/09 11:03:18;;;;;;;17.23;12.20;;;;;;;;;;4993561;28;22124;-77
2023/04/09 11:05:48;;;;;;;18.98;12.27;;;;;;;;;;4987725;28;20033;-78
2023/04/09 11:08:15;;;;;;;16.55;11.02;;;;;;;;;;4985789;28;20113;-78
2023/04/09 11:10:43;;;;;;;15.65;10.35;;;;;;;;;;5008281;28;20033;-78
2023/04/09 11:13:16;;;;;;;13.80;8.50;;;;;;;;;;5005705;28;20150;-78
2023/04/09 11:15:43;;;;;;;15.57;10.43;;;;;;;;;;4994824;28;20230;-79
2023/04/09 11:18:12;;;;;;;16.05;10.65;;;;;;;;;;5009349;28;20033;-78
2023/04/09 11:20:39;;;;;;;16.95;10.88;;;;;;;;;;4987612;28;20040;-78
2023/04/09 11:23:05;;;;;;;14.73;10.25;;;;;;;;;;4992737;28;20030;-78
2023/04/09 11:25:31;;;;;;;15.32;10.45;;;;;;;;;;5002015;28;20026;-79
2023/04/09 11:27:57;;;;;;;15.43;10.48;;;;;;;;;;4995362;28;20033;-78
2023/04/09 11:30:22;;;;;;;13.95;10.32;;;;;;;;;;4999069;28;20028;-79
2023/04/09 11:32:49;;;;;;;15.50;11.02;;;;;;;;;;5010811;28;20038;-78
2023/04/09 11:35:16;;;;;;;15.48;10.45;;;;;;;;;;4993331;28;20040;-78
2023/04/09 11:37:43;;;;;;;17.05;10.63;;;;;;;;;;5010997;28;20551;-78
2023/04/09 11:40:18;;;;;;;14.90;10.15;;;;;;;;;;5011131;28;20026;-78
2023/04/09 11:42:45;;;;;;;15.02;9.77;;;;;;;;;;5018851;28;20025;-78
2023/04/09 11:45:11;;;;;;;14.82;10.52;;;;;;;;;;4993604;28;20030;-78
2023/04/09 11:47:40;;;;;;;13.68;9.43;;;;;;;;;;5008775;28;20030;-78
2023/04/09 11:50:10;;;;;;;15.00;9.75;;;;;;;;;;4995645;28;20030;-78
2023/04/09 11:52:36;;;;;;;15.35;9.52;;;;;;;;;;4983292;28;20857;-78
2023/04/09 11:55:03;;;;;;;16.20;10.07;;;;;;;;;;4999784;28;20057;-79
2023/04/09 11:58:02;;;;;;;12.98;9.13;;;;;;;;;;5013694;28;20111;-78
2023/04/09 12:00:28;;;;;;;15.68;9.98;;;;;;;;;;5013296;28;20030;-78
2023/04/09 12:03:03;;;;;;;14.77;9.68;;;;;;;;;;4986379;28;20041;-79
2023/04/09 12:05:34;;;;;;;16.55;10.20;;;;;;;;;;5008998;28;20679;-79
2023/04/09 12:08:02;;;;;;;14.65;9.77;;;;;;;;;;5017104;28;20098;-79
2023/04/09 12:10:29;;;;;;;14.52;9.88;;;;;;;;;;5005203;28;20022;-78
2023/04/09 12:13:04;;;;;;;14.75;9.70;;;;;;;;;;5015228;28;20022;-78
2023/04/09 12:15:32;;;;;;;12.05;8.68;;;;;;;;;;4999801;28;20581;-78
2023/04/09 12:17:57;;;;;;;12.98;9.32;;;;;;;;;;4994599;28;20018;-79
2023/04/09 12:20:33;;;;;;;14.52;8.85;;;;;;;;;;5009526;28;20513;-79
2023/04/09 12:23:01;;;;;;;14.25;9.07;;;;;;;;;;4998727;28;20032;-78
2023/04/09 12:25:27;;;;;;;11.45;8.23;;;;;;;;;;5011954;28;20030;-78
2023/04/09 12:27:54;;;;;;;11.77;8.38;;;;;;;;;;4994008;28;20044;-78
2023/04/09 12:30:20;;;;;;;14.38;8.93;;;;;;;;;;5001127;28;20022;-79
2023/04/09 12:32:45;;;;;;;12.75;8.25;;;;;;;;;;5004795;28;20032;-79
2023/04/09 12:35:12;;;;;;;11.27;8.32;;;;;;;;;;5021987;28;20048;-78
2023/04/09 12:37:37;;;;;;;12.45;8.52;;;;;;;;;;5001693;28;20034;-79
2023/04/09 12:40:03;;;;;;;10.90;8.43;;;;;;;;;;5006690;28;20025;-79
2023/04/09 12:42:28;;;;;;;12.30;7.68;;;;;;;;;;4991806;28;20026;-80
2023/04/09 12:44:53;;;;;;;11.88;8.00;;;;;;;;;;4999224;28;20390;-78
2023/04/09 12:47:19;;;;;;;11.38;7.82;;;;;;;;;;4996706;28;20134;-78
2023/04/09 12:49:45;;;;;;;11.85;8.13;;;;;;;;;;5020255;28;20077;-79
2023/04/09 12:52:14;;;;;;;12.13;7.95;;;;;;;;;;4999082;28;20117;-78
2023/04/09 12:54:39;;;;;;;10.27;7.18;;;;;;;;;;5030918;28;20025;-80
2023/04/09 12:57:05;;;;;;;11.90;8.05;;;;;;;;;;5023345;28;20034;-79
2023/04/09 12:59:30;;;;;;;11.95;7.68;;;;;;;;;;5002335;28;20026;-80
2023/04/09 13:01:56;;;;;;;11.50;7.72;;;;;;;;;;5017327;28;20018;-79
2023/04/09 13:04:21;;;;;;;10.73;7.40;;;;;;;;;;5022637;28;20259;-79
2023/04/09 13:06:47;;;;;;;11.32;7.75;;;;;;;;;;5026372;28;20064;-79
2023/04/09 13:09:13;;;;;;;12.18;8.13;;;;;;;;;;5026259;28;20045;-80
2023/04/09 13:11:38;;;;;;;10.77;7.10;;;;;;;;;;5027308;28;20014;-79
2023/04/09 13:14:04;;;;;;;11.55;7.70;;;;;;;;;;5005768;28;20040;-79
2023/04/09 13:16:29;;;;;;;12.18;7.93;;;;;;;;;;5026195;28;20034;-79
2023/04/09 13:18:54;;;;;;;11.82;7.10;;;;;;;;;;4999699;28;20029;-78
2023/04/09 13:21:20;;;;;;;11.45;7.53;;;;;;;;;;5003421;28;20025;-78
2023/04/09 13:23:45;;;;;;;10.40;6.68;;;;;;;;;;5021792;28;20501;-79
2023/04/09 13:26:10;;;;;;;10.52;7.10;;;;;;;;;;5020019;28;20033;-79
2023/04/09 13:28:36;;;;;;;10.95;7.07;;;;;;;;;;5014043;28;20117;-78
2023/04/09 13:31:02;;;;;;;10.55;7.30;;;;;;;;;;5014738;28;20037;-79
2023/04/09 13:33:27;;;;;;;10.88;7.40;;;;;;;;;;4999131;28;20036;-80
2023/04/09 13:35:52;;;;;;;10.20;7.47;;;;;;;;;;5017653;28;20029;-78
2023/04/09 13:38:18;;;;;;;11.45;7.00;;;;;;;;;;5013410;28;20402;-80
2023/04/09 13:40:43;;;;;;;10.65;7.10;;;;;;;;;;4986735;28;20036;-80
2023/04/09 13:43:09;;;;;;;11.02;7.35;;;;;;;;;;5008573;28;20059;-79
2023/04/09 13:45:34;;;;;;;9.98;6.60;;;;;;;;;;5005880;28;20042;-80
2023/04/09 13:47:59;;;;;;;10.82;7.28;;;;;;;;;;5023231;28;20033;-80
2023/04/09 13:50:25;;;;;;;10.40;7.60;;;;;;;;;;5015220;28;20048;-80
2023/04/09 13:52:50;;;;;;;10.65;7.32;;;;;;;;;;5023169;28;20045;-79
2023/04/09 14:00:26;;;;;;;11.40;7.40;;;;;;;;;;5201732;22;20029;-78
2023/04/09 14:02:51;;;;;;;10.77;7.40;;;;;;;;;;5068987;23;20048;-78
2023/04/09 14:05:17;;;;;;;11.23;7.35;;;;;;;;;;5014417;28;20073;-78
2023/04/09 14:10:17;;;;;;;10.95;7.28;;;;;;;;;;6022068;22;20052;-80
2023/04/09 14:15:18;;;;;;;10.45;7.00;;;;;;;;;;5409455;22;20030;-80
2023/04/09 14:17:44;;;;;;;12.32;8.35;;;;;;;;;;5027434;28;20089;-80
2023/04/09 14:22:47;;;;;;;10.70;7.57;;;;;;;;;;5740712;23;20023;-79
2023/04/09 14:27:48;;;;;;;10.20;6.72;;;;;;;;;;5976281;23;20035;-78
2023/04/09 14:30:13;;;;;;;14.02;7.35;;;;;;;;;;5326205;23;20033;-78
2023/04/09 14:32:39;;;;;;;10.23;6.93;;;;;;;;;;5034573;28;20042;-79
2023/04/09 14:45:41;;;;;;;10.57;6.93;;;;;;;;;;6213371;22;1280990;-79